Time;durP1;ratioP1;P1;durP2;ratioP2;P2;SDS_P1;SDS_P2;PMS_P1;PMS_P2;Temp;Humidity;BMP_temperature;BMP_pressure;BME280_temperature;BME280_humidity;BME280_pressure;Samples;Min_cycle;Max_cycle;Signal;HPM_P1;HPM_P2
2023/04/19 00:00:34;;;;;;;;;;;;;;;;;;5088260;27;43043;-85
2023/04/19 00:03:00;;;;;;;;;;;19.90;43.60;;;;;;5087458;27;43496;-85
2023/04/19 00:05:26;;;;;;;;;;;;;;;;;;5086221;28;42935;-86
2023/04/19 00:07:52;;;;;;;;;;;;;;;;;;5088352;28;42967;-81
2023/04/19 00:10:18;;;;;;;;;;;20.00;43.70;;;;;;5086765;28;43060;-83
2023/04/19 00:12:43;;;;;;;;;;;20.00;43.60;;;;;;5067718;28;43013;-82
2023/04/19 00:15:09;;;;;;;;;;;20.10;43.50;;;;;;5068097;28;43091;-84
2023/04/19 00:17:35;;;;;;;;;;;;;;;;;;5067405;28;43234;-81
2023/04/19 00:20:01;;;;;;;;;;;;;;;;;;5068267;28;42802;-83
2023/04/19 00:22:27;;;;;;;;;;;;;;;;;;5067807;28;43462;-82
2023/04/19 00:24:53;;;;;;;;;;;;;;;;;;5067688;28;42816;-86
2023/04/19 00:27:19;;;;;;;;;;;;;;;;;;5067341;28;42873;-86
2023/04/19 00:29:44;;;;;;;;;;;;;;;;;;5067355;28;43263;-81
2023/04/19 00:32:10;;;;;;;;;;;;;;;;;;5067302;28;43017;-85
2023/04/19 00:34:36;;;;;;;;;;;20.10;43.70;;;;;;5067676;28;42924;-86
2023/04/19 00:37:04;;;;;;;;;;;20.10;43.70;;;;;;5067580;28;43866;-85
2023/04/19 00:39:29;;;;;;;;;;;20.10;43.70;;;;;;5067787;28;42990;-81
2023/04/19 00:41:56;;;;;;;;;;;;;;;;;;5066559;28;43785;-85
2023/04/19 00:44:22;;;;;;;;;;;20.00;43.80;;;;;;5082764;28;42901;-83
2023/04/19 00:46:47;;;;;;;;;;;20.10;44.00;;;;;;5087824;27;42845;-83
2023/04/19 00:49:13;;;;;;;;;;;20.00;43.90;;;;;;5088009;27;42961;-80
2023/04/19 00:51:39;;;;;;;;;;;;;;;;;;5087688;27;42822;-83
2023/04/19 00:54:06;;;;;;;;;;;20.00;43.80;;;;;;5088101;27;43108;-81
2023/04/19 00:56:32;;;;;;;;;;;;;;;;;;5087464;27;43016;-86
2023/04/19 00:58:57;;;;;;;;;;;20.00;44.10;;;;;;5087921;28;43149;-83
2023/04/19 01:01:23;;;;;;;;;;;20.10;44.20;;;;;;5086866;27;42817;-82
2023/04/19 01:03:49;;;;;;;;;;;;;;;;;;5086884;27;43561;-83
2023/04/19 01:06:15;;;;;;;;;;;;;;;;;;5085023;28;43584;-84
2023/04/19 01:08:41;;;;;;;;;;;;;;;;;;5086614;28;42935;-86
2023/04/19 01:11:07;;;;;;;;;;;;;;;;;;5087343;28;43745;-84
2023/04/19 01:13:33;;;;;;;;;;;;;;;;;;5085666;28;43203;-86
2023/04/19 01:15:59;;;;;;;;;;;;;;;;;;5087102;27;42910;-81
2023/04/19 01:18:25;;;;;;;;;;;;;;;;;;5087733;28;43206;-87
2023/04/19 01:20:50;;;;;;;;;;;;;;;;;;5087437;28;43414;-83
2023/04/19 01:23:16;;;;;;;;;;;;;;;;;;5087455;28;42886;-83
2023/04/19 01:25:42;;;;;;;;;;;20.10;44.10;;;;;;5087253;28;43670;-86
2023/04/19 01:28:07;;;;;;;;;;;20.10;44.10;;;;;;5086615;27;43111;-82
2023/04/19 01:30:33;;;;;;;;;;;;;;;;;;5075241;27;43238;-82
2023/04/19 01:32:59;;;;;;;;;;;20.20;43.70;;;;;;5083424;28;42965;-86
2023/04/19 01:35:25;;;;;;;;;;;;;;;;;;5087044;28;43327;-85
2023/04/19 01:37:54;;;;;;;;;;;;;;;;;;5086468;28;43012;-86
2023/04/19 01:40:20;;;;;;;;;;;20.10;44.00;;;;;;5086946;27;43525;-86
2023/04/19 01:42:46;;;;;;;;;;;20.10;44.10;;;;;;5087240;27;42926;-83
2023/04/19 01:45:11;;;;;;;;;;;20.20;44.10;;;;;;5086885;27;43041;-85
2023/04/19 01:47:37;;;;;;;;;;;20.10;43.70;;;;;;5087003;27;42818;-87
2023/04/19 01:50:03;;;;;;;;;;;;;;;;;;5086822;28;42905;-80
2023/04/19 01:52:28;;;;;;;;;;;;;;;;;;5087128;28;43034;-79
2023/04/19 01:54:54;;;;;;;;;;;;;;;;;;5086889;28;42914;-84
2023/04/19 01:57:20;;;;;;;;;;;20.10;44.10;;;;;;5086080;28;43075;-85
2023/04/19 01:59:46;;;;;;;;;;;;;;;;;;5085886;27;43640;-84
2023/04/19 02:02:11;;;;;;;;;;;20.20;44.30;;;;;;5086095;28;43001;-85
2023/04/19 02:04:37;;;;;;;;;;;20.10;44.10;;;;;;5085825;27;43040;-81
2023/04/19 02:07:03;;;;;;;;;;;;;;;;;;5086622;28;42894;-83
2023/04/19 02:09:29;;;;;;;;;;;;;;;;;;5084768;28;43237;-86
2023/04/19 02:11:55;;;;;;;;;;;;;;;;;;5085967;28;43029;-85
2023/04/19 02:14:21;;;;;;;;;;;;;;;;;;5085582;28;43635;-85
2023/04/19 02:16:46;;;;;;;;;;;;;;;;;;5085814;28;42960;-85
2023/04/19 02:19:12;;;;;;;;;;;20.10;44.40;;;;;;5085953;27;43671;-86
2023/04/19 02:21:38;;;;;;;;;;;19.90;44.20;;;;;;5085932;28;42973;-84
2023/04/19 02:24:03;;;;;;;;;;;20.00;44.30;;;;;;5085345;27;43121;-84
2023/04/19 02:26:29;;;;;;;;;;;;;;;;;;5085100;27;42971;-80
2023/04/19 02:28:55;;;;;;;;;;;20.00;44.20;;;;;;5085865;28;43797;-85
2023/04/19 02:31:21;;;;;;;;;;;;;;;;;;5086157;27;42892;-85
2023/04/19 02:33:47;;;;;;;;;;;;;;;;;;5085708;28;43688;-83
2023/04/19 02:36:13;;;;;;;;;;;;;;;;;;5086154;28;43069;-86
2023/04/19 02:38:38;;;;;;;;;;;;;;;;;;5085872;28;44288;-85
2023/04/19 02:41:05;;;;;;;;;;;;;;;;;;5085865;28;42806;-86
2023/04/19 02:43:30;;;;;;;;;;;;;;;;;;5086012;27;42809;-83
2023/04/19 02:45:56;;;;;;;;;;;;;;;;;;5085947;28;42885;-85
2023/04/19 02:48:22;;;;;;;;;;;20.20;44.20;;;;;;5085420;28;42976;-84
2023/04/19 02:50:48;;;;;;;;;;;;;;;;;;5085516;27;42980;-85
2023/04/19 02:53:13;;;;;;;;;;;20.30;44.40;;;;;;5085832;28;43676;-86
2023/04/19 02:55:39;;;;;;;;;;;20.20;44.20;;;;;;5085743;28;42847;-86
2023/04/19 02:58:05;;;;;;;;;;;;;;;;;;5084301;27;43431;-85
2023/04/19 03:00:31;;;;;;;;;;;;;;;;;;5086037;28;42893;-85
2023/04/19 03:02:57;;;;;;;;;;;;;;;;;;5085522;28;43504;-86
2023/04/19 03:05:23;;;;;;;;;;;;;;;;;;5085414;28;43225;-86
2023/04/19 03:07:49;;;;;;;;;;;;;;;;;;5085003;28;42904;-86
2023/04/19 03:10:14;;;;;;;;;;;;;;;;;;5084928;28;43150;-85
2023/04/19 03:12:40;;;;;;;;;;;;;;;;;;5085054;28;42736;-84
2023/04/19 03:15:06;;;;;;;;;;;;;;;;;;5084913;28;42793;-85
2023/04/19 03:17:32;;;;;;;;;;;;;;;;;;5085015;28;43642;-86
2023/04/19 03:19:58;;;;;;;;;;;;;;;;;;5085421;28;43059;-83
2023/04/19 03:22:24;;;;;;;;;;;20.10;44.90;;;;;;5085146;28;43941;-85
2023/04/19 03:24:49;;;;;;;;;;;20.00;44.90;;;;;;5085551;27;42795;-87
2023/04/19 03:27:15;;;;;;;;;;;;;;;;;;5085020;27;43017;-87
2023/04/19 03:29:41;;;;;;;;;;;;;;;;;;5084006;28;43541;-86
2023/04/19 03:32:07;;;;;;;;;;;;;;;;;;5067413;28;42913;-85
2023/04/19 03:34:33;;;;;;;;;;;;;;;;;;5064402;28;42974;-85
2023/04/19 03:36:59;;;;;;;;;;;;;;;;;;5064568;28;42752;-85
2023/04/19 03:39:24;;;;;;;;;;;;;;;;;;5064755;28;42864;-84
2023/04/19 03:41:50;;;;;;;;;;;;;;;;;;5064673;28;42902;-84
2023/04/19 03:44:16;;;;;;;;;;;20.20;45.50;;;;;;5065192;28;42916;-84
2023/04/19 03:46:41;;;;;;;;;;;20.00;45.50;;;;;;5064775;28;43587;-85
2023/04/19 03:49:07;;;;;;;;;;;;;;;;;;5064561;28;43233;-82
2023/04/19 03:51:33;;;;;;;;;;;;;;;;;;5064413;28;43675;-85
2023/04/19 03:53:59;;;;;;;;;;;;;;;;;;5063939;28;42831;-85
2023/04/19 03:56:25;;;;;;;;;;;;;;;;;;5064474;28;44861;-86
2023/04/19 03:58:51;;;;;;;;;;;;;;;;;;5064225;28;43021;-85
2023/04/19 04:01:17;;;;;;;;;;;;;;;;;;5064447;28;43586;-86
2023/04/19 04:03:43;;;;;;;;;;;;;;;;;;5069396;28;43052;-80
2023/04/19 04:06:08;;;;;;;;;;;;;;;;;;5084908;28;42882;-82
2023/04/19 04:08:35;;;;;;;;;;;;;;;;;;5085194;28;42796;-84
2023/04/19 04:11:01;;;;;;;;;;;;;;;;;;5084488;27;42793;-84
2023/04/19 04:13:27;;;;;;;;;;;;;;;;;;5084695;28;43467;-85
2023/04/19 04:15:53;;;;;;;;;;;;;;;;;;5083921;28;42924;-87
2023/04/19 04:18:19;;;;;;;;;;;;;;;;;;5083264;27;43003;-86
2023/04/19 04:20:45;;;;;;;;;;;;;;;;;;5062919;28;44970;-86
2023/04/19 04:23:10;;;;;;;;;;;;;;;;;;5063855;28;43021;-86
2023/04/19 04:25:38;;;;;;;;;;;;;;;;;;5064032;28;43498;-86
2023/04/19 04:28:03;;;;;;;;;;;20.00;46.30;;;;;;5063609;28;43118;-86
2023/04/19 04:30:29;;;;;;;;;;;20.00;46.30;;;;;;5063891;28;43057;-84
2023/04/19 04:32:56;;;;;;;;;;;;;;;;;;5064558;28;43027;-84
2023/04/19 04:35:22;;;;;;;;;;;;;;;;;;5063892;28;42950;-87
2023/04/19 04:37:50;;;;;;;;;;;;;;;;;;5063741;28;42911;-87
2023/04/19 04:40:15;;;;;;;;;;;20.20;46.30;;;;;;5063414;28;42956;-86
2023/04/19 04:42:41;;;;;;;;;;;20.10;46.10;;;;;;5064914;28;42923;-83
2023/04/19 04:45:09;;;;;;;;;;;;;;;;;;5076266;28;43099;-81
2023/04/19 04:47:35;;;;;;;;;;;;;;;;;;5086909;28;43044;-88
2023/04/19 04:50:01;;;;;;;;;;;;;;;;;;5087049;28;42941;-89
2023/04/19 04:52:27;;;;;;;;;;;;;;;;;;5087650;28;43047;-80
2023/04/19 04:54:53;;;;;;;;;;;;;;;;;;5086205;28;42959;-79
2023/04/19 04:57:19;;;;;;;;;;;;;;;;;;5076558;28;43089;-81
2023/04/19 04:59:48;;;;;;;;;;;;;;;;;;5086164;28;43839;-81
2023/04/19 05:02:14;;;;;;;;;;;;;;;;;;5085912;28;42987;-81
2023/04/19 05:04:39;;;;;;;;;;;20.30;47.20;;;;;;5085828;28;43857;-82
2023/04/19 05:07:05;;;;;;;;;;;;;;;;;;5086517;28;42886;-81
2023/04/19 05:09:31;;;;;;;;;;;20.40;47.10;;;;;;5085167;28;45472;-81
2023/04/19 05:11:57;;;;;;;;;;;;;;;;;;5086485;27;42825;-81
2023/04/19 05:14:23;;;;;;;;;;;;;;;;;;5081875;28;45255;-80
2023/04/19 05:16:48;;;;;;;;;;;;;;;;;;5078864;28;43214;-80
2023/04/19 05:19:15;;;;;;;;;;;;;;;;;;5083558;28;43927;-78
2023/04/19 05:21:40;;;;;;;;;;;;;;;;;;5085828;27;43364;-80
2023/04/19 05:24:08;;;;;;;;;;;;;;;;;;5085354;28;43038;-76
2023/04/19 05:26:34;;;;;;;;;;;;;;;;;;5084420;27;43609;-80
2023/04/19 05:29:00;;;;;;;;;;;;;;;;;;5076631;28;43141;-84
2023/04/19 05:31:26;;;;;;;;;;;20.20;47.60;;;;;;5082729;28;43043;-83
2023/04/19 05:33:52;;;;;;;;;;;;;;;;;;5080501;28;43883;-84
2023/04/19 05:36:17;;;;;;;;;;;20.10;47.90;;;;;;5083630;28;43066;-82
2023/04/19 05:38:43;;;;;;;;;;;;;;;;;;5079421;28;43663;-82
2023/04/19 05:41:09;;;;;;;;;;;;;;;;;;5083179;28;43138;-83
2023/04/19 05:43:35;;;;;;;;;;;;;;;;;;5084997;28;42882;-84
2023/04/19 05:46:01;;;;;;;;;;;;;;;;;;5082193;28;43000;-82
2023/04/19 05:48:26;;;;;;;;;;;;;;;;;;5081857;28;43617;-83
2023/04/19 05:50:56;;;;;;;;;;;;;;;;;;5085270;28;42953;-84
2023/04/19 05:53:21;;;;;;;;;;;20.20;47.80;;;;;;5086848;27;43021;-83
2023/04/19 05:55:49;;;;;;;;;;;;;;;;;;5080861;27;43104;-84
2023/04/19 05:58:15;;;;;;;;;;;;;;;;;;5085185;27;43515;-84
2023/04/19 06:00:41;;;;;;;;;;;;;;;;;;5082183;28;43069;-83
2023/04/19 06:03:07;;;;;;;;;;;;;;;;;;5082929;28;42944;-84
2023/04/19 06:05:33;;;;;;;;;;;20.30;47.40;;;;;;5084528;27;42940;-83
2023/04/19 06:07:59;;;;;;;;;;;;;;;;;;5093793;27;43664;-84
2023/04/19 06:10:25;;;;;;;;;;;;;;;;;;5094926;27;43113;-84
2023/04/19 06:12:50;;;;;;;;;;;;;;;;;;5093551;27;42869;-83
2023/04/19 06:15:16;;;;;;;;;;;;;;;;;;5085497;28;43280;-83
2023/04/19 06:17:42;;;;;;;;;;;;;;;;;;5084240;27;43428;-83
2023/04/19 06:20:08;;;;;;;;;;;20.30;47.70;;;;;;5078550;28;43066;-83
2023/04/19 06:22:35;;;;;;;;;;;;;;;;;;5084461;28;43836;-84
2023/04/19 06:25:01;;;;;;;;;;;;;;;;;;5085485;28;42903;-83
2023/04/19 06:27:27;;;;;;;;;;;;;;;;;;5084673;27;44339;-82
2023/04/19 06:29:53;;;;;;;;;;;;;;;;;;5089840;27;43109;-81
2023/04/19 06:32:19;;;;;;;;;;;;;;;;;;5086114;27;43557;-81
2023/04/19 06:34:45;;;;;;;;;;;;;;;;;;5085305;28;42911;-80
2023/04/19 06:37:11;;;;;;;;;;;;;;;;;;5080185;28;43695;-81
2023/04/19 06:39:37;;;;;;;;;;;;;;;;;;5084409;28;42866;-81
2023/04/19 06:42:03;;;;;;;;;;;;;;;;;;5081067;28;43030;-81
2023/04/19 06:44:28;;;;;;;;;;;;;;;;;;5086687;27;43173;-81
2023/04/19 06:46:54;;;;;;;;;;;;;;;;;;5088227;27;42980;-80
2023/04/19 06:49:21;;;;;;;;;;;;;;;;;;5088211;27;43034;-79
2023/04/19 06:51:48;;;;;;;;;;;;;;;;;;5095752;27;43329;-80
2023/04/19 06:54:13;;;;;;;;;;;20.10;47.80;;;;;;5094736;27;42736;-78
2023/04/19 06:56:47;;;;;;;;;;;20.20;47.90;;;;;;5096750;27;42932;-81
2023/04/19 06:59:15;;;;;;;;;;;20.10;47.70;;;;;;5086137;27;43168;-80
2023/04/19 07:01:41;;;;;;;;;;;;;;;;;;5092240;27;43811;-80
2023/04/19 07:04:07;;;;;;;;;;;;;;;;;;5077742;27;42892;-78
2023/04/19 07:06:33;;;;;;;;;;;;;;;;;;5081185;28;44392;-79
2023/04/19 07:08:59;;;;;;;;;;;;;;;;;;5083649;28;42979;-81
2023/04/19 07:11:24;;;;;;;;;;;;;;;;;;5084109;28;42976;-79
2023/04/19 07:13:52;;;;;;;;;;;;;;;;;;5078759;28;43120;-83
2023/04/19 07:16:17;;;;;;;;;;;20.10;47.60;;;;;;5078093;28;43774;-83
2023/04/19 07:18:43;;;;;;;;;;;;;;;;;;5085074;27;42975;-82
2023/04/19 07:21:09;;;;;;;;;;;20.10;47.20;;;;;;5084684;28;43330;-85
2023/04/19 07:23:35;;;;;;;;;;;;;;;;;;5082861;27;42922;-85
2023/04/19 07:26:01;;;;;;;;;;;;;;;;;;5082852;28;44828;-83
2023/04/19 07:28:27;;;;;;;;;;;;;;;;;;5084941;28;42930;-83
2023/04/19 07:30:53;;;;;;;;;;;;;;;;;;5084686;28;43034;-84
2023/04/19 07:33:19;;;;;;;;;;;;;;;;;;5085076;28;42912;-80
2023/04/19 07:35:45;;;;;;;;;;;;;;;;;;5085044;28;42842;-77
2023/04/19 07:38:11;;;;;;;;;;;;;;;;;;5085648;27;42855;-77
2023/04/19 07:40:36;;;;;;;;;;;;;;;;;;5085491;28;42916;-80
2023/04/19 07:43:02;;;;;;;;;;;;;;;;;;5085062;28;42966;-79
2023/04/19 07:45:28;;;;;;;;;;;;;;;;;;5084777;28;43378;-79
2023/04/19 07:47:54;;;;;;;;;;;;;;;;;;5085129;28;42981;-78
2023/04/19 07:50:20;;;;;;;;;;;20.20;46.00;;;;;;5085240;28;44085;-78
2023/04/19 07:52:45;;;;;;;;;;;20.00;45.90;;;;;;5085210;27;43459;-80
2023/04/19 07:55:11;;;;;;;;;;;20.00;45.60;;;;;;5084628;28;43571;-82
2023/04/19 07:57:37;;;;;;;;;;;;;;;;;;5084368;27;43059;-81
2023/04/19 08:00:03;;;;;;;;;;;;;;;;;;5084347;28;43624;-79
2023/04/19 08:02:29;;;;;;;;;;;;;;;;;;5085328;27;43223;-81
2023/04/19 08:04:56;;;;;;;;;;;20.10;45.50;;;;;;5085196;28;43026;-81
2023/04/19 08:07:22;;;;;;;;;;;20.20;45.50;;;;;;5085023;27;43085;-80
2023/04/19 08:09:48;;;;;;;;;;;20.10;45.30;;;;;;5084846;28;43845;-79
2023/04/19 08:12:14;;;;;;;;;;;;;;;;;;5084742;27;42780;-79
2023/04/19 08:14:41;;;;;;;;;;;;;;;;;;5084881;28;43918;-81
2023/04/19 08:17:07;;;;;;;;;;;;;;;;;;5086500;27;43007;-80
2023/04/19 08:19:33;;;;;;;;;;;;;;;;;;5088171;28;44072;-81
2023/04/19 08:21:58;;;;;;;;;;;;;;;;;;5088349;28;42893;-77
2023/04/19 08:24:25;;;;;;;;;;;;;;;;;;5087869;28;43743;-80
2023/04/19 08:26:55;;;;;;;;;;;;;;;;;;5087965;27;42963;-78
2023/04/19 08:29:21;;;;;;;;;;;;;;;;;;5087786;28;43075;-77
2023/04/19 08:31:47;;;;;;;;;;;;;;;;;;5088006;27;42893;-82
2023/04/19 08:34:12;;;;;;;;;;;;;;;;;;5087964;28;42887;-81
2023/04/19 08:36:38;;;;;;;;;;;;;;;;;;5087599;28;42890;-81
2023/04/19 08:39:04;;;;;;;;;;;20.00;45.80;;;;;;5087150;28;43552;-81
2023/04/19 08:41:30;;;;;;;;;;;20.10;45.70;;;;;;5087621;27;42925;-80
2023/04/19 08:43:56;;;;;;;;;;;;;;;;;;5087505;27;43166;-81
2023/04/19 08:46:22;;;;;;;;;;;20.10;45.10;;;;;;5087785;27;42997;-76
2023/04/19 08:48:48;;;;;;;;;;;20.00;45.00;;;;;;5087536;27;43046;-81
2023/04/19 08:51:15;;;;;;;;;;;20.00;45.10;;;;;;5087710;27;43058;-80
2023/04/19 08:53:42;;;;;;;;;;;20.00;45.10;;;;;;5087593;27;43325;-81
2023/04/19 08:56:07;;;;;;;;;;;20.20;45.10;;;;;;5087691;27;42933;-80
2023/04/19 08:58:33;;;;;;;;;;;20.00;45.30;;;;;;5087203;27;42949;-80
2023/04/19 09:00:59;;;;;;;;;;;;;;;;;;5087162;28;42932;-81
2023/04/19 09:03:25;;;;;;;;;;;20.00;45.20;;;;;;5087603;27;43054;-78
2023/04/19 09:05:51;;;;;;;;;;;20.20;45.00;;;;;;5087277;27;42954;-81
2023/04/19 09:08:17;;;;;;;;;;;;;;;;;;5087158;27;42866;-77
2023/04/19 09:10:42;;;;;;;;;;;;;;;;;;5086991;28;42987;-81
2023/04/19 09:13:08;;;;;;;;;;;;;;;;;;5087503;28;42797;-78
2023/04/19 09:15:34;;;;;;;;;;;;;;;;;;5087864;28;43400;-81
2023/04/19 09:18:00;;;;;;;;;;;;;;;;;;5087639;28;43537;-78
2023/04/19 09:20:34;;;;;;;;;;;20.00;45.00;;;;;;5087838;28;42985;-81
2023/04/19 09:23:04;;;;;;;;;;;20.00;45.00;;;;;;5087322;27;43597;-82
2023/04/19 09:25:30;;;;;;;;;;;;;;;;;;5087393;27;42973;-81
2023/04/19 09:28:07;;;;;;;;;;;20.10;45.00;;;;;;5086255;27;43043;-80
2023/04/19 09:30:33;;;;;;;;;;;;;;;;;;5087264;28;42977;-81
2023/04/19 09:32:59;;;;;;;;;;;;;;;;;;5086727;28;43830;-80
2023/04/19 09:35:25;;;;;;;;;;;;;;;;;;5087008;28;43446;-78
2023/04/19 09:37:50;;;;;;;;;;;;;;;;;;5086838;28;42914;-82
2023/04/19 09:40:16;;;;;;;;;;;;;;;;;;5086869;28;42929;-81
2023/04/19 09:42:42;;;;;;;;;;;;;;;;;;5086502;28;42837;-81
2023/04/19 09:45:08;;;;;;;;;;;20.10;45.50;;;;;;5087118;28;43025;-80
2023/04/19 09:47:34;;;;;;;;;;;20.00;45.50;;;;;;5086403;27;43472;-81
2023/04/19 09:50:06;;;;;;;;;;;20.00;45.50;;;;;;5086224;27;43083;-81
2023/04/19 09:52:32;;;;;;;;;;;20.10;45.30;;;;;;5086152;27;43472;-79
2023/04/19 09:54:58;;;;;;;;;;;;;;;;;;5086394;28;42990;-80
2023/04/19 09:57:25;;;;;;;;;;;20.00;45.30;;;;;;5085072;28;44344;-80
2023/04/19 09:59:50;;;;;;;;;;;;;;;;;;5086679;27;43166;-83
2023/04/19 10:02:16;;;;;;;;;;;;;;;;;;5084736;28;45034;-81
2023/04/19 10:04:42;;;;;;;;;;;;;;;;;;5086107;28;42946;-80
2023/04/19 10:07:08;;;;;;;;;;;20.00;45.40;;;;;;5085644;28;43005;-81
2023/04/19 10:09:34;;;;;;;;;;;20.10;45.50;;;;;;5085464;27;43193;-82
2023/04/19 10:12:00;;;;;;;;;;;;;;;;;;5084610;28;43077;-81
2023/04/19 10:14:27;;;;;;;;;;;20.00;45.40;;;;;;5086171;28;43061;-82
2023/04/19 10:16:53;;;;;;;;;;;;;;;;;;5085861;27;42933;-82
2023/04/19 10:19:19;;;;;;;;;;;;;;;;;;5086549;28;42929;-82
2023/04/19 10:21:46;;;;;;;;;;;;;;;;;;5086023;28;42917;-81
2023/04/19 10:24:12;;;;;;;;;;;19.90;45.30;;;;;;5086297;27;42746;-82
2023/04/19 10:26:56;;;;;;;;;;;20.10;45.40;;;;;;5085944;27;42871;-81
2023/04/19 10:29:40;;;;;;;;;;;19.90;45.30;;;;;;5085319;28;43076;-81
2023/04/19 10:32:06;;;;;;;;;;;20.10;45.30;;;;;;5086544;28;42946;-82
2023/04/19 10:34:41;;;;;;;;;;;20.00;45.10;;;;;;5086669;28;42909;-81
2023/04/19 10:37:07;;;;;;;;;;;;;;;;;;5086169;27;43323;-82
2023/04/19 10:39:32;;;;;;;;;;;;;;;;;;5082596;27;42832;-79
2023/04/19 10:41:59;;;;;;;;;;;;;;;;;;5082978;27;43181;-79
2023/04/19 10:44:24;;;;;;;;;;;;;;;;;;5096367;27;42846;-79
2023/04/19 10:46:50;;;;;;;;;;;;;;;;;;5093434;27;42836;-78
2023/04/19 10:49:16;;;;;;;;;;;;;;;;;;5091402;27;42793;-81
2023/04/19 10:51:48;;;;;;;;;;;20.00;44.90;;;;;;5096109;27;42933;-80
2023/04/19 10:54:26;;;;;;;;;;;20.00;45.00;;;;;;5082759;27;42980;-79
2023/04/19 10:57:04;;;;;;;;;;;20.00;45.20;;;;;;5084008;28;44065;-81
2023/04/19 10:59:40;;;;;;;;;;;20.10;45.10;;;;;;5089452;27;42948;-82
2023/04/19 11:02:20;;;;;;;;;;;20.00;45.10;;;;;;5093527;27;43297;-79
2023/04/19 11:04:49;;;;;;;;;;;20.00;45.00;;;;;;5093355;27;42982;-80
2023/04/19 11:07:17;;;;;;;;;;;;;;;;;;5094426;27;42945;-80
2023/04/19 11:09:43;;;;;;;;;;;;;;;;;;5085152;27;42991;-80
2023/04/19 11:12:09;;;;;;;;;;;;;;;;;;5081764;28;43660;-80
2023/04/19 11:14:35;;;;;;;;;;;;;;;;;;5081748;28;42956;-80
2023/04/19 11:17:01;;;;;;;;;;;;;;;;;;5084565;28;43037;-81
2023/04/19 11:19:29;;;;;;;;;;;;;;;;;;5083852;27;59392;-81
2023/04/19 11:21:55;;;;;;;;;;;;;;;;;;5081970;28;43561;-79
2023/04/19 11:24:20;;;;;;;;;;;;;;;;;;5084790;28;43358;-79
2023/04/19 11:26:49;;;;;;;;;;;;;;;;;;5084514;28;43017;-80
2023/04/19 11:29:15;;;;;;;;;;;20.00;44.50;;;;;;5082088;28;42913;-80
2023/04/19 11:31:41;;;;;;;;;;;;;;;;;;5083939;28;42987;-79
2023/04/19 11:34:07;;;;;;;;;;;;;;;;;;5082694;28;43060;-80
2023/04/19 11:36:35;;;;;;;;;;;;;;;;;;5084043;28;43400;-80
2023/04/19 11:39:03;;;;;;;;;;;20.00;44.10;;;;;;5084766;27;43040;-80
2023/04/19 11:41:29;;;;;;;;;;;;;;;;;;5084360;27;42966;-80
2023/04/19 11:43:55;;;;;;;;;;;;;;;;;;5082144;28;42772;-80
2023/04/19 11:46:21;;;;;;;;;;;;;;;;;;5084859;28;43672;-80
2023/04/19 11:48:47;;;;;;;;;;;;;;;;;;5084519;28;42750;-80
2023/04/19 11:51:13;;;;;;;;;;;;;;;;;;5089185;27;43008;-81
2023/04/19 11:53:38;;;;;;;;;;;;;;;;;;5098317;27;43020;-81
2023/04/19 11:56:04;;;;;;;;;;;;;;;;;;5099098;27;43608;-81
2023/04/19 11:58:32;;;;;;;;;;;20.00;44.40;;;;;;5096934;27;43043;-81
2023/04/19 12:00:59;;;;;;;;;;;;;;;;;;5096655;27;42952;-80
2023/04/19 12:03:25;;;;;;;;;;;20.10;44.20;;;;;;5087943;27;43082;-80
2023/04/19 12:05:51;;;;;;;;;;;;;;;;;;5087260;27;42920;-83
2023/04/19 12:08:17;;;;;;;;;;;;;;;;;;5084726;28;43140;-86
2023/04/19 12:10:42;;;;;;;;;;;;;;;;;;5078306;28;43938;-81
2023/04/19 12:13:08;;;;;;;;;;;;;;;;;;5084440;28;43090;-82
2023/04/19 12:15:35;;;;;;;;;;;;;;;;;;5085619;28;42960;-82
2023/04/19 12:18:01;;;;;;;;;;;;;;;;;;5082527;28;42962;-84
2023/04/19 12:20:27;;;;;;;;;;;;;;;;;;5086937;28;43039;-86
2023/04/19 12:22:53;;;;;;;;;;;;;;;;;;5087034;28;43003;-86
2023/04/19 12:25:19;;;;;;;;;;;;;;;;;;5086913;28;43493;-86
2023/04/19 12:27:45;;;;;;;;;;;;;;;;;;5087243;27;43083;-85
2023/04/19 12:30:11;;;;;;;;;;;;;;;;;;5086514;27;42984;-87
2023/04/19 12:32:37;;;;;;;;;;;;;;;;;;5098607;27;43075;-86
2023/04/19 12:35:03;;;;;;;;;;;;;;;;;;5096528;27;43724;-83
2023/04/19 12:37:28;;;;;;;;;;;;;;;;;;5096568;27;43030;-84
2023/04/19 12:39:54;;;;;;;;;;;;;;;;;;5098259;27;42905;-82
2023/04/19 12:42:20;;;;;;;;;;;;;;;;;;5095474;27;43087;-81
2023/04/19 12:44:46;;;;;;;;;;;;;;;;;;5096324;27;42899;-83
2023/04/19 12:47:12;;;;;;;;;;;;;;;;;;5097999;27;44316;-83
2023/04/19 12:49:38;;;;;;;;;;;;;;;;;;5095463;27;43393;-84
2023/04/19 12:52:05;;;;;;;;;;;20.20;44.20;;;;;;5086740;27;42968;-85
2023/04/19 12:54:39;;;;;;;;;;;;;;;;;;5086684;27;42909;-85
2023/04/19 12:57:05;;;;;;;;;;;;;;;;;;5086490;28;42937;-84
2023/04/19 12:59:31;;;;;;;;;;;;;;;;;;5086770;28;42922;-83
2023/04/19 13:01:56;;;;;;;;;;;;;;;;;;5084761;27;42934;-85
2023/04/19 13:04:22;;;;;;;;;;;;;;;;;;5085825;28;43546;-84
2023/04/19 13:06:48;;;;;;;;;;;;;;;;;;5086581;28;43074;-85
2023/04/19 13:09:14;;;;;;;;;;;20.20;45.50;;;;;;5086132;28;42972;-85
2023/04/19 13:11:39;;;;;;;;;;;20.20;45.60;;;;;;5086715;27;43077;-84
2023/04/19 13:14:05;;;;;;;;;;;20.30;45.60;;;;;;5086580;28;42987;-84
2023/04/19 13:16:31;;;;;;;;;;;;;;;;;;5084310;28;42982;-84
2023/04/19 13:18:57;;;;;;;;;;;;;;;;;;5086431;28;42982;-84
2023/04/19 13:21:23;;;;;;;;;;;;;;;;;;5086826;28;42949;-84
2023/04/19 13:23:49;;;;;;;;;;;;;;;;;;5086943;28;43875;-85
2023/04/19 13:26:15;;;;;;;;;;;;;;;;;;5087003;28;42936;-85
2023/04/19 13:28:41;;;;;;;;;;;;;;;;;;5086758;28;43512;-85
2023/04/19 13:31:07;;;;;;;;;;;;;;;;;;5086780;28;42961;-84
2023/04/19 13:33:32;;;;;;;;;;;;;;;;;;5086369;28;43220;-78
2023/04/19 13:35:58;;;;;;;;;;;;;;;;;;5086217;28;43048;-88
2023/04/19 13:38:27;;;;;;;;;;;;;;;;;;5084669;28;43950;-91
2023/04/19 13:40:53;;;;;;;;;;;20.20;45.70;;;;;;5083617;28;42956;-88
2023/04/19 13:43:19;;;;;;;;;;;;;;;;;;5086001;28;43704;-87
2023/04/19 13:45:45;;;;;;;;;;;;;;;;;;5086423;28;42770;-86
2023/04/19 13:48:11;;;;;;;;;;;;;;;;;;5085738;27;43403;-81
2023/04/19 13:50:37;;;;;;;;;;;;;;;;;;5084572;28;43222;-82
2023/04/19 13:53:03;;;;;;;;;;;;;;;;;;5086014;28;43576;-87
2023/04/19 13:55:28;;;;;;;;;;;;;;;;;;5085782;28;42965;-89
2023/04/19 13:57:54;;;;;;;;;;;;;;;;;;5086307;28;43138;-88
2023/04/19 14:00:20;;;;;;;;;;;;;;;;;;5086254;28;42973;-86
2023/04/19 14:02:46;;;;;;;;;;;20.10;45.80;;;;;;5086066;28;42955;-89
2023/04/19 14:05:12;;;;;;;;;;;;;;;;;;5085561;28;42931;-88
2023/04/19 14:07:38;;;;;;;;;;;;;;;;;;5086317;28;42998;-85
2023/04/19 14:10:03;;;;;;;;;;;20.10;45.50;;;;;;5086508;28;43083;-88
2023/04/19 14:12:29;;;;;;;;;;;20.20;45.30;;;;;;5084372;27;42960;-89
2023/04/19 14:14:55;;;;;;;;;;;;;;;;;;5080489;27;42877;-90
2023/04/19 14:17:21;;;;;;;;;;;;;;;;;;5083335;28;43883;-80
2023/04/19 14:19:47;;;;;;;;;;;;;;;;;;5084058;28;43025;-87
2023/04/19 14:22:13;;;;;;;;;;;;;;;;;;5085836;28;43119;-88
2023/04/19 14:24:39;;;;;;;;;;;;;;;;;;5086416;28;42850;-80
2023/04/19 14:27:04;;;;;;;;;;;;;;;;;;5082884;28;43913;-88
2023/04/19 14:29:30;;;;;;;;;;;;;;;;;;5086188;28;42967;-79
2023/04/19 14:31:58;;;;;;;;;;;;;;;;;;5084560;28;44409;-89
2023/04/19 14:34:23;;;;;;;;;;;20.20;45.00;;;;;;5086038;27;43008;-80
2023/04/19 14:36:49;;;;;;;;;;;20.20;45.00;;;;;;5085992;27;43709;-87
2023/04/19 14:39:15;;;;;;;;;;;;;;;;;;5086216;27;42968;-86
2023/04/19 14:41:41;;;;;;;;;;;;;;;;;;5085959;28;42799;-83
2023/04/19 14:44:07;;;;;;;;;;;;;;;;;;5085607;28;42850;-82
2023/04/19 14:46:33;;;;;;;;;;;;;;;;;;5085645;28;43718;-78
2023/04/19 14:49:02;;;;;;;;;;;;;;;;;;5085615;28;43190;-87
2023/04/19 14:51:28;;;;;;;;;;;;;;;;;;5085296;27;43016;-88
2023/04/19 14:53:53;;;;;;;;;;;20.10;44.80;;;;;;5085367;28;42965;-87
2023/04/19 14:56:19;;;;;;;;;;;20.10;44.50;;;;;;5084649;27;43057;-88
2023/04/19 14:58:45;;;;;;;;;;;;;;;;;;5083776;27;42922;-80
2023/04/19 15:01:11;;;;;;;;;;;;;;;;;;5085120;28;42972;-84
2023/04/19 15:03:37;;;;;;;;;;;;;;;;;;5084383;28;42910;-80
2023/04/19 15:06:03;;;;;;;;;;;;;;;;;;5085146;28;43982;-80
2023/04/19 15:08:29;;;;;;;;;;;20.20;44.70;;;;;;5079715;28;42879;-88
2023/04/19 15:10:55;;;;;;;;;;;;;;;;;;5084864;27;42825;-79
2023/04/19 15:13:21;;;;;;;;;;;;;;;;;;5085359;28;42956;-87
2023/04/19 15:15:47;;;;;;;;;;;;;;;;;;5085042;28;43417;-86
2023/04/19 15:18:13;;;;;;;;;;;20.20;43.70;;;;;;5084933;27;42920;-87
2023/04/19 15:20:39;;;;;;;;;;;;;;;;;;5084942;28;43393;-88
2023/04/19 15:23:05;;;;;;;;;;;;;;;;;;5084584;28;42909;-89
2023/04/19 15:25:31;;;;;;;;;;;;;;;;;;5084498;27;43476;-83
2023/04/19 15:27:57;;;;;;;;;;;;;;;;;;5085034;28;42692;-88
2023/04/19 15:30:22;;;;;;;;;;;;;;;;;;5084711;28;43876;-89
2023/04/19 15:32:48;;;;;;;;;;;;;;;;;;5084858;28;43017;-88
2023/04/19 15:35:14;;;;;;;;;;;;;;;;;;5081446;28;43676;-89
2023/04/19 15:37:41;;;;;;;;;;;20.30;44.30;;;;;;5079656;28;43052;-88
2023/04/19 15:40:08;;;;;;;;;;;20.20;44.30;;;;;;5083613;27;42924;-89
2023/04/19 15:42:34;;;;;;;;;;;20.30;44.30;;;;;;5082683;27;42998;-82
2023/04/19 15:45:00;;;;;;;;;;;;;;;;;;5087199;27;43242;-88
2023/04/19 15:47:25;;;;;;;;;;;20.10;44.50;;;;;;5086805;27;42710;-87
2023/04/19 15:49:52;;;;;;;;;;;20.30;44.70;;;;;;5085995;27;42941;-89
2023/04/19 15:52:18;;;;;;;;;;;;;;;;;;5087590;27;43505;-90